CheckWX is a tool to help pilots better visualize weather data.  It is not intended as a substitute for an official pre-flight weather briefing.

17:48:28 UTC

EGLC METAR
London City Airport
London, United Kingdom
Current

28 mins ago

EGLC 271720Z AUTO 23005G16KT 180V310 9999 -RA FEW024 BKN032 BKN042 07/05 Q0995
Observed
Jan-27 @ 17:20 UTC
Wind
  • 230° at 5 KTS
  • Gusting to 16 KTS
Visibility
10,000+ meters
Flight Rules
VFR
Conditions
Light Rain
Cloud Levels
  • Few at 2,400' AGL
  • Broken at 3,200' AGL
  • Broken at 4,200' AGL
Temperature
C / 45°F
Dewpoint
C / 41°F
Humidity
87%
Altimeter
29.38" Hg
Pressure
994.92 hPa
Previous

58 mins ago

EGLC 271650Z 25007KT 9000 -SHRA SCT014CB BKN021 BKN026 07/05 Q0996
Observed
Jan-27 @ 16:50 UTC
Wind
  • 250° at 7 KTS
Visibility
9,000 meters
Flight Rules
MVFR
Conditions
Light Rain
Cloud Levels
  • Scattered at 1,400' AGL
  • Broken at 2,100' AGL
  • Broken at 2,600' AGL
Temperature
C / 45°F
Dewpoint
C / 41°F
Humidity
87%
Altimeter
29.41" Hg
Pressure
995.92 hPa
Previous

1 hour ago

EGLC 271620Z 28007KT 8000 -SHRA SCT024CB OVC028 07/05 Q0996
Observed
Jan-27 @ 16:20 UTC
Wind
  • 280° at 7 KTS
Visibility
8,000 meters
Flight Rules
MVFR
Conditions
Light Rain
Cloud Levels
  • Scattered at 2,400' AGL
  • Overcast at 2,800' AGL
Temperature
C / 45°F
Dewpoint
C / 41°F
Humidity
87%
Altimeter
29.41" Hg
Pressure
995.92 hPa